Time;durP1;ratioP1;P1;durP2;ratioP2;P2;SDS_P1;SDS_P2;PMS_P1;PMS_P2;Temp;Humidity;BMP_temperature;BMP_pressure;BME280_temperature;BME280_humidity;BME280_pressure;Samples;Min_cycle;Max_cycle;Signal;HPM_P1;HPM_P2
2021/07/26 00:01:04;;;;;;;58.65;31.30;;;;;;;;;;5027386;28;20131;-83
2021/07/26 00:03:35;;;;;;;55.65;31.17;;;;;;;;;;5021373;28;20053;-83
2021/07/26 00:06:02;;;;;;;49.15;31.42;;;;;;;;;;5005924;28;20060;-83
2021/07/26 00:08:34;;;;;;;53.70;29.77;;;;;;;;;;5011604;28;20049;-83
2021/07/26 00:11:06;;;;;;;61.78;32.78;;;;;;;;;;5030803;28;20099;-82
2021/07/26 00:13:34;;;;;;;51.10;30.52;;;;;;;;;;5025516;28;20045;-82
2021/07/26 00:16:02;;;;;;;49.83;29.92;;;;;;;;;;5019826;28;20443;-83
2021/07/26 00:18:29;;;;;;;50.05;30.58;;;;;;;;;;5021664;28;20089;-83
2021/07/26 00:20:57;;;;;;;54.13;31.92;;;;;;;;;;5014146;28;20088;-82
2021/07/26 00:23:24;;;;;;;51.03;30.02;;;;;;;;;;5007997;28;20084;-83
2021/07/26 00:25:51;;;;;;;56.35;31.00;;;;;;;;;;5005041;28;20081;-84
2021/07/26 00:28:18;;;;;;;53.00;31.60;;;;;;;;;;5031568;28;20081;-83
2021/07/26 00:30:46;;;;;;;50.75;30.08;;;;;;;;;;5014279;28;20130;-84
2021/07/26 00:33:31;;;;;;;50.08;29.13;;;;;;;;;;5029990;28;20128;-82
2021/07/26 00:35:58;;;;;;;49.40;30.23;;;;;;;;;;5003693;28;20124;-82
2021/07/26 00:38:25;;;;;;;50.53;29.40;;;;;;;;;;5014299;28;20383;-82
2021/07/26 00:40:52;;;;;;;53.42;29.70;;;;;;;;;;5015294;28;20128;-82
2021/07/26 00:43:19;;;;;;;54.40;30.75;;;;;;;;;;5003059;28;20133;-83
2021/07/26 00:45:50;;;;;;;47.67;29.70;;;;;;;;;;4978348;28;20129;-82
2021/07/26 00:48:18;;;;;;;50.17;30.20;;;;;;;;;;5029030;28;20663;-82
2021/07/26 00:50:45;;;;;;;54.25;31.38;;;;;;;;;;5013806;28;20078;-82
2021/07/26 00:53:14;;;;;;;51.38;30.55;;;;;;;;;;5011568;28;20088;-82
2021/07/26 00:55:41;;;;;;;54.17;30.17;;;;;;;;;;4999952;28;20076;-82
2021/07/26 00:58:08;;;;;;;49.50;28.55;;;;;;;;;;4995704;28;20157;-82
2021/07/26 01:00:35;;;;;;;48.38;29.67;;;;;;;;;;4992800;28;20494;-81
2021/07/26 01:03:03;;;;;;;54.60;30.52;;;;;;;;;;5009836;28;20064;-82
2021/07/26 01:05:30;;;;;;;52.10;30.73;;;;;;;;;;4988515;28;20077;-81
2021/07/26 01:07:57;;;;;;;52.05;30.30;;;;;;;;;;5023679;28;20570;-82
2021/07/26 01:10:24;;;;;;;52.00;29.55;;;;;;;;;;5012114;28;20125;-82
2021/07/26 01:12:57;;;;;;;45.47;28.90;;;;;;;;;;5013083;28;20132;-82
2021/07/26 01:15:24;;;;;;;47.60;29.17;;;;;;;;;;4995751;28;20054;-82
2021/07/26 01:18:21;;;;;;;52.83;27.92;;;;;;;;;;5010880;28;20069;-82
2021/07/26 01:20:54;;;;;;;45.78;27.88;;;;;;;;;;5014638;28;20073;-82
2021/07/26 01:23:23;;;;;;;44.78;27.05;;;;;;;;;;5016512;28;20073;-82
2021/07/26 01:25:50;;;;;;;46.25;28.17;;;;;;;;;;5017068;28;20149;-82
2021/07/26 01:28:26;;;;;;;46.92;27.58;;;;;;;;;;5013278;28;20042;-82
2021/07/26 01:30:53;;;;;;;44.30;28.35;;;;;;;;;;5012830;28;20130;-82
2021/07/26 01:33:20;;;;;;;47.85;27.08;;;;;;;;;;5006818;28;20136;-81
2021/07/26 01:35:48;;;;;;;45.38;27.63;;;;;;;;;;5021486;28;20132;-82
2021/07/26 01:38:15;;;;;;;44.42;27.30;;;;;;;;;;5012756;28;20765;-82
2021/07/26 01:40:44;;;;;;;44.83;26.70;;;;;;;;;;5030779;28;20132;-82
2021/07/26 01:43:11;;;;;;;47.05;27.83;;;;;;;;;;5011371;28;20127;-82
2021/07/26 01:45:39;;;;;;;44.88;26.90;;;;;;;;;;5017355;28;20129;-82
2021/07/26 01:48:22;;;;;;;46.15;27.92;;;;;;;;;;5012607;28;20049;-82
2021/07/26 01:51:00;;;;;;;44.88;28.55;;;;;;;;;;5012932;28;20456;-81
2021/07/26 01:53:27;;;;;;;45.70;28.02;;;;;;;;;;5006895;28;20124;-82
2021/07/26 01:55:55;;;;;;;48.03;28.38;;;;;;;;;;5003555;28;20552;-82
2021/07/26 01:58:22;;;;;;;48.65;28.67;;;;;;;;;;5009151;28;20475;-82
2021/07/26 02:00:49;;;;;;;43.20;27.63;;;;;;;;;;5014411;28;20045;-82
2021/07/26 02:03:16;;;;;;;49.22;27.67;;;;;;;;;;5011137;28;20046;-82
2021/07/26 02:05:43;;;;;;;47.17;28.95;;;;;;;;;;5016806;28;20085;-82
2021/07/26 02:08:11;;;;;;;47.58;28.15;;;;;;;;;;5003167;28;20101;-81
2021/07/26 02:10:39;;;;;;;47.63;27.27;;;;;;;;;;5020813;28;20077;-82
2021/07/26 02:13:06;;;;;;;46.22;27.40;;;;;;;;;;5011518;28;20054;-81
2021/07/26 02:15:33;;;;;;;45.83;26.83;;;;;;;;;;5001311;28;20046;-82
2021/07/26 02:18:00;;;;;;;46.45;28.98;;;;;;;;;;5013448;28;20050;-82
2021/07/26 02:20:28;;;;;;;46.50;27.33;;;;;;;;;;5013755;28;20054;-82
2021/07/26 02:22:56;;;;;;;46.47;27.75;;;;;;;;;;5024368;28;20050;-81
2021/07/26 02:25:23;;;;;;;41.88;27.00;;;;;;;;;;5002161;28;20452;-81
2021/07/26 02:27:50;;;;;;;49.30;29.65;;;;;;;;;;5006657;28;20125;-82
2021/07/26 02:30:17;;;;;;;50.63;29.27;;;;;;;;;;5027847;28;20142;-81
2021/07/26 02:32:44;;;;;;;44.85;28.20;;;;;;;;;;5028036;28;20125;-81
2021/07/26 02:35:12;;;;;;;45.75;27.45;;;;;;;;;;4994708;28;20133;-82
2021/07/26 02:37:39;;;;;;;46.67;29.20;;;;;;;;;;5026630;28;20136;-81
2021/07/26 02:40:06;;;;;;;57.20;30.30;;;;;;;;;;5027757;28;20092;-81
2021/07/26 02:42:34;;;;;;;45.40;28.55;;;;;;;;;;5009060;28;20736;-82
2021/07/26 02:45:01;;;;;;;47.80;28.75;;;;;;;;;;5006129;28;20053;-82
2021/07/26 02:47:29;;;;;;;46.25;28.30;;;;;;;;;;5015376;28;20088;-81
2021/07/26 02:49:56;;;;;;;44.75;27.70;;;;;;;;;;5033613;28;20514;-82
2021/07/26 02:52:23;;;;;;;46.75;28.63;;;;;;;;;;5014965;28;20485;-81
2021/07/26 02:58:14;;;;;;;42.17;27.15;;;;;;;;;;5047812;22;20146;-82
2021/07/26 03:00:41;;;;;;;51.67;28.08;;;;;;;;;;5052838;28;20131;-81
2021/07/26 03:03:08;;;;;;;46.60;28.73;;;;;;;;;;5032531;28;20439;-81
2021/07/26 03:05:36;;;;;;;49.72;27.65;;;;;;;;;;5027312;28;20236;-81
2021/07/26 03:08:03;;;;;;;49.58;28.65;;;;;;;;;;5032360;28;20594;-82
2021/07/26 03:10:30;;;;;;;47.38;27.95;;;;;;;;;;5015087;28;20081;-81
2021/07/26 03:12:57;;;;;;;49.17;27.70;;;;;;;;;;5032715;28;20085;-81
2021/07/26 03:15:24;;;;;;;42.95;27.23;;;;;;;;;;5036558;28;20099;-81
2021/07/26 03:17:57;;;;;;;45.63;28.17;;;;;;;;;;5052411;28;20057;-81
2021/07/26 03:20:25;;;;;;;46.92;28.85;;;;;;;;;;5034825;28;20626;-82
2021/07/26 03:23:02;;;;;;;47.72;29.15;;;;;;;;;;5034302;28;20076;-82
2021/07/26 03:25:40;;;;;;;45.78;27.77;;;;;;;;;;5037900;28;20155;-82
2021/07/26 03:28:08;;;;;;;47.90;28.88;;;;;;;;;;5034387;28;20083;-82
2021/07/26 03:30:36;;;;;;;45.80;27.83;;;;;;;;;;5052212;28;20072;-81
2021/07/26 03:33:04;;;;;;;44.75;26.30;;;;;;;;;;5047866;28;20077;-82
2021/07/26 03:35:31;;;;;;;51.05;27.70;;;;;;;;;;5027871;28;20068;-82
2021/07/26 03:38:00;;;;;;;53.60;28.05;;;;;;;;;;5044858;28;20613;-82
2021/07/26 03:40:27;;;;;;;44.83;28.20;;;;;;;;;;5013801;28;20145;-82
2021/07/26 03:42:56;;;;;;;50.38;29.65;;;;;;;;;;5015061;28;20114;-82
2021/07/26 03:45:23;;;;;;;50.97;27.92;;;;;;;;;;5025271;28;20056;-82
2021/07/26 03:47:51;;;;;;;43.65;27.52;;;;;;;;;;5051408;28;20183;-82
2021/07/26 03:50:19;;;;;;;52.53;29.45;;;;;;;;;;5033912;28;20055;-82
2021/07/26 03:52:47;;;;;;;46.78;29.15;;;;;;;;;;5033305;28;20882;-82
2021/07/26 03:55:16;;;;;;;50.70;28.42;;;;;;;;;;5037624;28;20057;-82
2021/07/26 03:57:43;;;;;;;44.17;27.20;;;;;;;;;;5033276;28;20124;-81
2021/07/26 04:00:12;;;;;;;45.28;26.88;;;;;;;;;;5051386;28;20080;-82
2021/07/26 04:02:39;;;;;;;49.60;27.33;;;;;;;;;;5033401;28;20462;-81
2021/07/26 04:05:11;;;;;;;48.17;27.98;;;;;;;;;;5007441;28;20714;-81
2021/07/26 04:07:40;;;;;;;53.92;27.17;;;;;;;;;;5049566;28;20102;-81
2021/07/26 04:10:09;;;;;;;47.67;27.77;;;;;;;;;;5051532;28;20883;-81
2021/07/26 04:12:36;;;;;;;54.38;29.58;;;;;;;;;;5033528;28;20041;-82
2021/07/26 04:15:09;;;;;;;47.30;28.10;;;;;;;;;;5019226;28;20055;-81
2021/07/26 04:17:36;;;;;;;44.72;28.30;;;;;;;;;;5033013;28;20561;-82
2021/07/26 04:20:05;;;;;;;49.40;27.88;;;;;;;;;;5050793;28;20088;-81
2021/07/26 04:22:46;;;;;;;45.17;27.55;;;;;;;;;;5049288;28;20092;-80
2021/07/26 04:25:15;;;;;;;44.97;28.08;;;;;;;;;;4998491;28;20585;-81
2021/07/26 04:27:42;;;;;;;45.03;26.35;;;;;;;;;;5023773;28;20127;-81
2021/07/26 04:30:09;;;;;;;50.33;28.15;;;;;;;;;;5028585;28;20541;-81
2021/07/26 04:32:40;;;;;;;42.50;26.63;;;;;;;;;;5028602;28;20080;-81
2021/07/26 04:35:08;;;;;;;47.22;27.35;;;;;;;;;;4991477;28;20184;-81
2021/07/26 04:37:36;;;;;;;48.22;28.30;;;;;;;;;;5021969;28;20081;-81
2021/07/26 04:40:04;;;;;;;48.67;26.20;;;;;;;;;;5026315;28;20091;-81
2021/07/26 04:42:33;;;;;;;52.13;27.05;;;;;;;;;;5046882;28;20124;-81
2021/07/26 04:45:01;;;;;;;45.08;27.10;;;;;;;;;;5028604;28;20053;-82
2021/07/26 04:47:28;;;;;;;52.35;28.25;;;;;;;;;;5049959;28;20128;-81
2021/07/26 04:49:55;;;;;;;47.10;27.98;;;;;;;;;;5045628;28;20087;-83
2021/07/26 04:52:23;;;;;;;47.45;28.35;;;;;;;;;;5025227;28;20044;-82
2021/07/26 04:54:52;;;;;;;49.40;27.05;;;;;;;;;;5030159;28;20516;-81
2021/07/26 04:57:19;;;;;;;50.88;27.95;;;;;;;;;;5047766;28;20657;-81
2021/07/26 04:59:46;;;;;;;43.28;26.95;;;;;;;;;;5044804;28;20053;-81
2021/07/26 05:02:13;;;;;;;47.80;29.65;;;;;;;;;;5031648;28;20048;-80
2021/07/26 05:04:41;;;;;;;52.97;27.75;;;;;;;;;;5027800;28;20676;-80
2021/07/26 05:07:08;;;;;;;46.90;27.52;;;;;;;;;;5039470;28;20081;-80
2021/07/26 05:09:38;;;;;;;44.72;27.80;;;;;;;;;;5045587;28;20073;-80
2021/07/26 05:12:12;;;;;;;43.75;26.98;;;;;;;;;;5027650;28;20048;-79
2021/07/26 05:14:40;;;;;;;49.45;28.38;;;;;;;;;;5012357;28;20541;-80
2021/07/26 05:17:07;;;;;;;45.35;28.95;;;;;;;;;;5009015;28;20155;-78
2021/07/26 05:19:35;;;;;;;43.53;27.90;;;;;;;;;;5010750;28;20088;-80
2021/07/26 05:22:03;;;;;;;43.03;28.58;;;;;;;;;;5011968;28;20085;-82
2021/07/26 05:24:31;;;;;;;47.80;28.15;;;;;;;;;;5034639;28;20752;-81
2021/07/26 05:26:59;;;;;;;47.67;28.33;;;;;;;;;;5049982;28;20048;-81
2021/07/26 05:29:27;;;;;;;48.05;29.35;;;;;;;;;;5046802;28;20127;-81
2021/07/26 05:31:54;;;;;;;44.55;28.48;;;;;;;;;;5049035;28;20132;-84
2021/07/26 05:34:22;;;;;;;45.28;27.40;;;;;;;;;;5038236;28;20083;-80
2021/07/26 05:36:49;;;;;;;42.65;27.40;;;;;;;;;;5049771;28;20441;-80
2021/07/26 05:39:17;;;;;;;49.20;29.08;;;;;;;;;;5036021;28;20141;-79
2021/07/26 05:41:44;;;;;;;43.95;27.98;;;;;;;;;;5031588;28;20136;-80
2021/07/26 05:44:12;;;;;;;44.65;27.98;;;;;;;;;;5014050;28;20128;-80
2021/07/26 05:46:39;;;;;;;46.45;28.08;;;;;;;;;;5048622;28;20065;-80
2021/07/26 05:49:07;;;;;;;46.70;28.25;;;;;;;;;;5034734;28;20081;-80
2021/07/26 05:51:34;;;;;;;43.78;27.45;;;;;;;;;;5045139;28;20141;-81
2021/07/26 05:54:01;;;;;;;47.13;28.75;;;;;;;;;;5029350;28;20079;-81
2021/07/26 05:56:29;;;;;;;48.95;28.75;;;;;;;;;;5014149;28;20080;-80
2021/07/26 05:59:00;;;;;;;40.42;26.73;;;;;;;;;;5048074;28;20072;-81
2021/07/26 06:04:14;;;;;;;;;;;;;;;;;;5048124;28;20041;-82
2021/07/26 06:06:42;;;;;;;43.38;28.15;;;;;;;;;;5049216;28;19964;-82
2021/07/26 06:09:10;;;;;;;43.92;26.63;;;;;;;;;;5045001;28;20069;-81
2021/07/26 06:11:38;;;;;;;47.97;28.42;;;;;;;;;;5015006;28;20144;-82
2021/07/26 06:14:05;;;;;;;45.00;27.30;;;;;;;;;;5058808;22;20076;-81
2021/07/26 06:16:33;;;;;;;52.70;28.67;;;;;;;;;;5048956;28;20053;-81
2021/07/26 06:19:07;;;;;;;41.10;25.88;;;;;;;;;;5058846;28;20084;-81
2021/07/26 06:21:39;;;;;;;45.13;27.17;;;;;;;;;;5052971;28;20135;-81
2021/07/26 06:24:06;;;;;;;39.08;26.67;;;;;;;;;;5043792;28;20049;-81
2021/07/26 06:26:33;;;;;;;42.30;27.20;;;;;;;;;;5054529;22;20133;-81
2021/07/26 06:29:01;;;;;;;43.17;25.50;;;;;;;;;;5029444;28;20046;-82
2021/07/26 06:31:28;;;;;;;41.63;25.75;;;;;;;;;;5032224;28;20076;-81
2021/07/26 06:33:55;;;;;;;41.83;26.98;;;;;;;;;;5027312;28;20053;-81
2021/07/26 06:36:22;;;;;;;47.28;26.80;;;;;;;;;;5007040;28;20054;-81
2021/07/26 06:38:49;;;;;;;39.22;27.20;;;;;;;;;;5012294;28;20136;-81
2021/07/26 06:41:16;;;;;;;41.45;26.45;;;;;;;;;;5030400;28;20738;-81
2021/07/26 06:43:45;;;;;;;41.17;27.00;;;;;;;;;;5027560;28;20084;-80
2021/07/26 06:46:14;;;;;;;34.67;24.92;;;;;;;;;;5021607;28;20132;-80
2021/07/26 06:48:41;;;;;;;38.85;26.63;;;;;;;;;;5020438;28;20136;-80
2021/07/26 06:51:08;;;;;;;44.88;27.63;;;;;;;;;;5022029;28;20069;-80
2021/07/26 06:53:35;;;;;;;51.78;27.60;;;;;;;;;;5016894;28;20077;-80
2021/07/26 06:56:07;;;;;;;44.22;27.55;;;;;;;;;;5023561;28;20445;-80
2021/07/26 06:58:34;;;;;;;40.95;25.63;;;;;;;;;;5026613;28;20085;-80
2021/07/26 07:01:03;;;;;;;43.42;27.30;;;;;;;;;;5040800;28;20137;-80
2021/07/26 07:03:31;;;;;;;38.25;26.33;;;;;;;;;;5027534;28;20053;-80
2021/07/26 07:06:05;;;;;;;40.35;27.05;;;;;;;;;;5026742;28;20517;-80
2021/07/26 07:08:32;;;;;;;43.28;27.80;;;;;;;;;;5029500;28;20135;-80
2021/07/26 07:11:03;;;;;;;35.63;25.80;;;;;;;;;;5028498;28;20068;-80
2021/07/26 07:16:59;;;;;;;40.60;27.08;;;;;;;;;;4988672;28;20038;-80
2021/07/26 07:19:26;;;;;;;43.53;25.77;;;;;;;;;;4977797;28;20046;-80
2021/07/26 07:21:53;;;;;;;42.30;27.42;;;;;;;;;;4985733;28;20102;-80
2021/07/26 07:24:22;;;;;;;41.05;26.05;;;;;;;;;;4968742;28;20094;-82
2021/07/26 07:26:49;;;;;;;39.55;26.00;;;;;;;;;;4992555;23;20065;-79
2021/07/26 07:29:17;;;;;;;44.17;27.40;;;;;;;;;;5048591;28;20044;-80
2021/07/26 07:31:44;;;;;;;40.10;25.17;;;;;;;;;;5049370;28;20049;-80
2021/07/26 07:34:12;;;;;;;40.60;25.35;;;;;;;;;;5027035;28;20151;-80
2021/07/26 07:36:40;;;;;;;41.95;27.23;;;;;;;;;;5044183;28;20473;-80
2021/07/26 07:39:07;;;;;;;36.35;26.42;;;;;;;;;;5047983;28;20092;-80
2021/07/26 07:41:35;;;;;;;45.67;29.58;;;;;;;;;;5048795;28;20063;-81
2021/07/26 07:44:02;;;;;;;43.75;26.50;;;;;;;;;;5044046;28;20135;-81
2021/07/26 07:46:29;;;;;;;38.28;26.05;;;;;;;;;;5028391;28;20148;-80
2021/07/26 07:48:56;;;;;;;35.22;25.23;;;;;;;;;;5047791;28;20053;-79
2021/07/26 07:51:25;;;;;;;41.45;26.48;;;;;;;;;;5030439;28;20151;-80
2021/07/26 07:53:56;;;;;;;35.50;25.73;;;;;;;;;;5044147;28;20132;-80
2021/07/26 07:56:23;;;;;;;38.38;26.05;;;;;;;;;;5026771;28;20077;-79
2021/07/26 07:58:52;;;;;;;39.83;26.60;;;;;;;;;;5059379;28;20775;-80
2021/07/26 08:01:19;;;;;;;44.80;25.77;;;;;;;;;;5051649;28;20544;-80
2021/07/26 08:03:49;;;;;;;42.30;26.55;;;;;;;;;;5028980;28;20138;-79
2021/07/26 08:06:17;;;;;;;41.53;25.40;;;;;;;;;;5026484;28;20048;-79
2021/07/26 08:08:44;;;;;;;34.67;24.63;;;;;;;;;;5031009;28;20782;-79
2021/07/26 08:11:12;;;;;;;42.53;26.15;;;;;;;;;;5031144;28;20521;-80
2021/07/26 08:13:40;;;;;;;37.60;24.33;;;;;;;;;;5028522;28;20076;-79
2021/07/26 08:16:09;;;;;;;37.28;24.10;;;;;;;;;;5045635;28;20153;-79
2021/07/26 08:18:54;;;;;;;36.22;24.27;;;;;;;;;;5047839;28;20127;-80
2021/07/26 08:21:22;;;;;;;33.85;24.17;;;;;;;;;;5030314;28;20143;-79
2021/07/26 08:23:49;;;;;;;34.97;23.65;;;;;;;;;;5044109;28;20155;-79
2021/07/26 08:26:16;;;;;;;38.17;24.63;;;;;;;;;;5042996;28;20128;-79
2021/07/26 08:28:43;;;;;;;32.40;24.58;;;;;;;;;;5034031;28;20120;-79
2021/07/26 08:31:10;;;;;;;35.13;23.52;;;;;;;;;;5045630;28;20337;-79
2021/07/26 08:33:38;;;;;;;38.00;24.30;;;;;;;;;;5039657;28;20919;-79
2021/07/26 08:36:06;;;;;;;34.45;23.73;;;;;;;;;;5042816;28;20171;-79
2021/07/26 08:38:33;;;;;;;32.10;23.38;;;;;;;;;;5026166;28;20107;-79
2021/07/26 08:41:00;;;;;;;34.05;24.58;;;;;;;;;;5025776;28;20064;-79
2021/07/26 08:43:28;;;;;;;35.15;23.17;;;;;;;;;;5032082;28;20111;-79
2021/07/26 08:45:56;;;;;;;38.22;23.73;;;;;;;;;;5031434;28;20092;-79
2021/07/26 08:48:24;;;;;;;35.00;23.20;;;;;;;;;;5019079;28;20049;-79
2021/07/26 08:50:54;;;;;;;36.40;24.85;;;;;;;;;;5020746;28;20475;-80
2021/07/26 08:53:21;;;;;;;32.30;23.88;;;;;;;;;;5016647;28;20128;-80
2021/07/26 08:55:49;;;;;;;32.33;23.63;;;;;;;;;;5039165;28;20076;-80
2021/07/26 08:58:16;;;;;;;40.22;24.85;;;;;;;;;;5042695;28;20044;-80
2021/07/26 09:00:43;;;;;;;33.90;24.42;;;;;;;;;;5029411;28;20140;-80
2021/07/26 09:03:13;;;;;;;36.70;24.05;;;;;;;;;;5027311;28;20139;-80
2021/07/26 09:05:41;;;;;;;33.92;23.20;;;;;;;;;;5023675;28;20151;-80
2021/07/26 09:08:08;;;;;;;33.85;24.35;;;;;;;;;;5038769;28;20700;-80
2021/07/26 09:10:37;;;;;;;32.33;23.20;;;;;;;;;;5024706;28;20068;-80
2021/07/26 09:13:07;;;;;;;38.22;24.73;;;;;;;;;;5030343;28;20199;-81
2021/07/26 09:15:40;;;;;;;34.10;24.13;;;;;;;;;;5051873;28;20538;-80
2021/07/26 09:18:10;;;;;;;34.65;24.33;;;;;;;;;;5048537;28;20052;-80
2021/07/26 09:20:39;;;;;;;37.45;24.73;;;;;;;;;;5030893;28;20489;-80
2021/07/26 09:23:14;;;;;;;39.88;25.50;;;;;;;;;;5030281;28;20080;-79
2021/07/26 09:25:42;;;;;;;35.15;25.30;;;;;;;;;;5008927;28;20053;-80
2021/07/26 09:28:16;;;;;;;38.45;26.45;;;;;;;;;;5054118;28;20469;-81
2021/07/26 09:30:49;;;;;;;33.75;24.70;;;;;;;;;;5029615;28;20064;-80
2021/07/26 09:33:21;;;;;;;36.47;24.90;;;;;;;;;;5035232;28;20048;-80
2021/07/26 09:36:04;;;;;;;39.22;25.48;;;;;;;;;;5052348;28;20834;-81
2021/07/26 09:38:31;;;;;;;36.08;25.10;;;;;;;;;;5017456;28;20056;-80
2021/07/26 09:41:00;;;;;;;37.17;25.38;;;;;;;;;;5023446;28;20080;-80
2021/07/26 09:43:27;;;;;;;35.78;24.45;;;;;;;;;;5020869;28;20053;-80
2021/07/26 09:45:56;;;;;;;43.53;25.35;;;;;;;;;;5035286;28;20156;-80
2021/07/26 09:48:26;;;;;;;32.30;23.48;;;;;;;;;;5048039;28;20452;-80
2021/07/26 09:50:55;;;;;;;42.50;24.98;;;;;;;;;;5030754;28;20049;-81
2021/07/26 09:56:44;;;;;;;39.55;23.63;;;;;;;;;;5049462;22;20053;-80
2021/07/26 09:59:22;;;;;;;35.00;24.13;;;;;;;;;;5008911;28;20050;-80
2021/07/26 10:01:51;;;;;;;31.58;23.25;;;;;;;;;;5026881;28;20104;-80
2021/07/26 10:04:18;;;;;;;35.13;22.80;;;;;;;;;;5021596;28;20060;-81
2021/07/26 10:06:46;;;;;;;31.00;21.67;;;;;;;;;;5024518;28;20053;-80
2021/07/26 10:09:13;;;;;;;30.23;21.23;;;;;;;;;;5027265;28;20128;-80
2021/07/26 10:11:47;;;;;;;33.75;21.73;;;;;;;;;;5028359;28;20137;-80
2021/07/26 10:14:14;;;;;;;33.83;21.83;;;;;;;;;;5021795;28;20624;-81
2021/07/26 10:16:41;;;;;;;31.65;21.52;;;;;;;;;;5025426;28;20049;-81
2021/07/26 10:19:09;;;;;;;41.33;22.40;;;;;;;;;;5026199;28;20053;-80
2021/07/26 10:21:36;;;;;;;33.03;22.63;;;;;;;;;;5030081;28;20060;-80
2021/07/26 10:24:07;;;;;;;33.38;21.65;;;;;;;;;;5022177;28;20455;-80
2021/07/26 10:26:43;;;;;;;31.50;21.95;;;;;;;;;;5025372;28;20107;-80
2021/07/26 10:29:11;;;;;;;32.08;22.25;;;;;;;;;;5031190;28;20136;-80
2021/07/26 10:31:39;;;;;;;33.10;23.00;;;;;;;;;;5032101;28;20444;-81
2021/07/26 10:37:00;;;;;;;31.48;21.58;;;;;;;;;;5007489;28;20057;-81
2021/07/26 10:39:28;;;;;;;30.58;22.10;;;;;;;;;;5012029;28;20057;-85
2021/07/26 10:41:55;;;;;;;29.00;21.50;;;;;;;;;;5012348;28;20060;-82
2021/07/26 10:44:23;;;;;;;35.75;23.05;;;;;;;;;;5007138;28;20089;-84
2021/07/26 10:46:53;;;;;;;37.92;21.25;;;;;;;;;;5010309;28;20077;-83
2021/07/26 10:49:21;;;;;;;34.13;21.70;;;;;;;;;;5011955;28;20065;-82
2021/07/26 10:51:51;;;;;;;31.42;21.98;;;;;;;;;;5012939;28;20364;-83
2021/07/26 10:54:35;;;;;;;36.45;21.65;;;;;;;;;;5008188;28;20060;-83
2021/07/26 10:57:03;;;;;;;32.03;21.02;;;;;;;;;;5011572;28;20096;-83
2021/07/26 10:59:31;;;;;;;28.08;20.60;;;;;;;;;;5013237;28;20466;-83
2021/07/26 11:02:04;;;;;;;26.33;20.92;;;;;;;;;;5011427;28;20148;-82
2021/07/26 11:04:31;;;;;;;33.67;22.90;;;;;;;;;;5003618;28;20064;-82
2021/07/26 11:07:00;;;;;;;34.63;22.23;;;;;;;;;;5011786;28;20057;-82
2021/07/26 11:09:32;;;;;;;31.58;21.02;;;;;;;;;;5011582;28;20125;-82
2021/07/26 11:12:00;;;;;;;24.65;19.20;;;;;;;;;;5013103;28;20049;-82
2021/07/26 11:14:27;;;;;;;37.50;21.80;;;;;;;;;;5007762;28;20097;-82
2021/07/26 11:17:07;;;;;;;33.33;21.92;;;;;;;;;;5010798;28;20675;-83
2021/07/26 11:19:36;;;;;;;35.83;20.17;;;;;;;;;;5012811;28;20490;-82
2021/07/26 11:22:05;;;;;;;34.00;21.38;;;;;;;;;;5012905;28;20085;-82
2021/07/26 11:24:41;;;;;;;30.23;21.17;;;;;;;;;;5002491;28;20779;-82
2021/07/26 11:27:09;;;;;;;29.23;20.75;;;;;;;;;;5012957;28;20137;-82
2021/07/26 11:29:42;;;;;;;28.45;21.05;;;;;;;;;;5008509;28;20057;-79
2021/07/26 11:32:13;;;;;;;31.80;20.42;;;;;;;;;;5009074;28;20054;-78
2021/07/26 11:34:41;;;;;;;26.85;20.77;;;;;;;;;;4999881;28;20772;-81
2021/07/26 11:37:13;;;;;;;35.45;21.50;;;;;;;;;;5010285;28;20050;-82
2021/07/26 11:39:53;;;;;;;36.00;21.45;;;;;;;;;;5011303;28;20054;-81
2021/07/26 11:42:21;;;;;;;26.83;19.63;;;;;;;;;;5011327;28;20046;-82
2021/07/26 11:44:51;;;;;;;28.05;19.98;;;;;;;;;;5004803;28;20064;-81
2021/07/26 11:47:29;;;;;;;28.02;19.48;;;;;;;;;;5011028;28;20466;-81
2021/07/26 11:49:56;;;;;;;31.50;20.42;;;;;;;;;;5011562;28;20132;-82
2021/07/26 11:52:24;;;;;;;26.80;19.25;;;;;;;;;;5010815;28;20160;-83
2021/07/26 11:54:51;;;;;;;26.45;19.55;;;;;;;;;;5003330;28;20100;-84
2021/07/26 11:57:18;;;;;;;28.88;17.95;;;;;;;;;;5010891;28;20754;-86
2021/07/26 11:59:55;;;;;;;29.55;19.63;;;;;;;;;;5012329;28;20081;-83
2021/07/26 12:02:29;;;;;;;29.17;18.67;;;;;;;;;;5010508;28;20046;-84
2021/07/26 12:05:04;;;;;;;25.92;17.27;;;;;;;;;;5002369;28;20100;-86
2021/07/26 12:07:39;;;;;;;27.42;16.98;;;;;;;;;;5010920;28;20132;-85
2021/07/26 12:10:06;;;;;;;;;;;;;;;;;;5011316;28;20628;-85
2021/07/26 12:12:37;;;;;;;24.42;18.58;;;;;;;;;;4997745;28;20000;-84
2021/07/26 12:15:23;;;;;;;26.80;17.60;;;;;;;;;;4996211;28;20144;-85
2021/07/26 12:18:09;;;;;;;27.25;17.90;;;;;;;;;;5011815;28;20092;-85
2021/07/26 12:20:38;;;;;;;23.20;16.48;;;;;;;;;;5007806;28;20443;-85
2021/07/26 12:23:20;;;;;;;20.17;15.85;;;;;;;;;;5008345;28;20829;-84
2021/07/26 12:25:58;;;;;;;20.33;15.32;;;;;;;;;;5007748;28;20108;-84
2021/07/26 12:28:45;;;;;;;20.80;14.93;;;;;;;;;;5012115;28;20061;-83
2021/07/26 12:31:25;;;;;;;18.45;15.18;;;;;;;;;;5009918;28;20073;-85
2021/07/26 12:34:24;;;;;;;23.45;15.40;;;;;;;;;;5003439;28;20129;-82
2021/07/26 12:36:57;;;;;;;24.23;16.08;;;;;;;;;;5007273;28;20084;-82
2021/07/26 12:39:39;;;;;;;21.90;15.88;;;;;;;;;;5009121;28;20101;-82
2021/07/26 12:42:19;;;;;;;25.35;15.25;;;;;;;;;;5009564;28;20100;-81
2021/07/26 12:44:53;;;;;;;26.58;16.42;;;;;;;;;;5004923;28;20050;-82
2021/07/26 12:47:35;;;;;;;22.40;15.32;;;;;;;;;;5010363;28;20395;-80
2021/07/26 12:50:03;;;;;;;19.73;15.43;;;;;;;;;;5010937;28;20129;-83
2021/07/26 12:52:31;;;;;;;19.83;15.05;;;;;;;;;;5010833;28;20116;-82
2021/07/26 12:54:58;;;;;;;22.20;16.02;;;;;;;;;;5002291;28;20627;-81
2021/07/26 12:57:26;;;;;;;20.83;16.48;;;;;;;;;;5008155;28;20053;-84
2021/07/26 13:00:11;;;;;;;24.40;17.23;;;;;;;;;;5009554;28;20045;-82
2021/07/26 13:02:40;;;;;;;29.50;16.02;;;;;;;;;;5009121;28;20545;-81
2021/07/26 13:05:08;;;;;;;29.60;16.73;;;;;;;;;;5004901;28;20054;-82
2021/07/26 13:07:37;;;;;;;22.20;16.52;;;;;;;;;;5010601;28;20064;-82
2021/07/26 13:10:11;;;;;;;24.15;16.40;;;;;;;;;;4998818;28;20116;-82
2021/07/26 13:12:38;;;;;;;34.90;17.20;;;;;;;;;;5010753;28;20137;-84
2021/07/26 13:15:07;;;;;;;22.15;15.90;;;;;;;;;;4997017;28;20050;-80
2021/07/26 13:17:35;;;;;;;29.42;17.52;;;;;;;;;;5008861;28;20538;-80
2021/07/26 13:20:02;;;;;;;22.63;16.80;;;;;;;;;;4999158;28;20145;-81
2021/07/26 13:22:29;;;;;;;36.20;16.75;;;;;;;;;;5010544;28;20586;-80
2021/07/26 13:24:58;;;;;;;22.40;17.05;;;;;;;;;;4997037;28;20112;-79
2021/07/26 13:27:26;;;;;;;26.85;18.20;;;;;;;;;;5007867;28;20698;-80
2021/07/26 13:29:53;;;;;;;34.47;18.45;;;;;;;;;;5002129;28;20073;-81
2021/07/26 13:32:22;;;;;;;29.00;19.77;;;;;;;;;;4993842;28;20062;-80
2021/07/26 13:34:50;;;;;;;26.80;19.38;;;;;;;;;;5003249;22;20049;-78
2021/07/26 13:37:17;;;;;;;30.40;20.10;;;;;;;;;;5025159;28;20084;-79
2021/07/26 13:39:44;;;;;;;31.25;20.08;;;;;;;;;;5019081;28;20053;-80
2021/07/26 13:42:13;;;;;;;36.03;21.70;;;;;;;;;;5020534;28;20077;-83
2021/07/26 13:44:40;;;;;;;34.30;21.40;;;;;;;;;;4987158;28;20050;-80
2021/07/26 13:47:08;;;;;;;27.65;19.92;;;;;;;;;;4994271;28;20140;-79
2021/07/26 13:49:37;;;;;;;33.60;21.88;;;;;;;;;;5014584;28;20052;-78
2021/07/26 13:52:04;;;;;;;33.40;23.00;;;;;;;;;;5014546;28;20080;-76
2021/07/26 13:54:32;;;;;;;40.33;24.05;;;;;;;;;;4999964;28;20059;-77
2021/07/26 13:56:59;;;;;;;40.33;25.85;;;;;;;;;;4990521;28;20161;-77
2021/07/26 13:59:26;;;;;;;41.25;24.02;;;;;;;;;;4990772;28;20060;-77
2021/07/26 14:01:53;;;;;;;37.92;25.77;;;;;;;;;;5023071;28;20152;-78
2021/07/26 14:07:49;;;;;;;38.28;24.88;;;;;;;;;;5004224;28;20049;-77
2021/07/26 14:10:16;;;;;;;40.47;25.52;;;;;;;;;;5001390;28;20562;-78
2021/07/26 14:12:44;;;;;;;42.03;26.23;;;;;;;;;;4995297;28;20764;-78
2021/07/26 14:15:11;;;;;;;44.83;26.50;;;;;;;;;;4999130;28;20133;-78
2021/07/26 14:17:41;;;;;;;37.67;25.38;;;;;;;;;;5007291;28;20050;-78
2021/07/26 14:20:09;;;;;;;44.35;26.58;;;;;;;;;;5007677;28;20634;-77
2021/07/26 14:22:36;;;;;;;40.35;25.33;;;;;;;;;;5006711;28;20058;-78
2021/07/26 14:27:52;;;;;;;36.40;19.80;;;;;;;;;;5024362;28;20616;-78
2021/07/26 14:30:26;;;;;;;30.67;21.55;;;;;;;;;;5026001;28;20516;-78
2021/07/26 14:32:54;;;;;;;27.73;20.73;;;;;;;;;;5026882;28;20077;-78
2021/07/26 14:35:21;;;;;;;31.80;21.20;;;;;;;;;;5019703;28;20053;-78
2021/07/26 14:37:48;;;;;;;31.95;20.05;;;;;;;;;;5027831;28;20497;-77
2021/07/26 14:40:15;;;;;;;30.73;19.92;;;;;;;;;;5027600;28;20099;-77
2021/07/26 14:42:42;;;;;;;29.85;19.25;;;;;;;;;;5026265;28;20132;-77
2021/07/26 14:45:09;;;;;;;33.67;20.98;;;;;;;;;;5020161;28;20057;-77
2021/07/26 14:47:37;;;;;;;26.85;19.80;;;;;;;;;;5025207;28;20411;-77
2021/07/26 14:50:04;;;;;;;30.13;21.80;;;;;;;;;;5027434;28;20140;-77
2021/07/26 14:52:31;;;;;;;37.92;22.45;;;;;;;;;;5027088;28;20165;-77